Brainard, Iowa
Current Conditions -  °F | °C
As of 10:35 AM on Sunday 21 Dec 2014 (Local Time) from KDEH Reporting Station
Haze Haze  
Wind Chill: 27°   Ceiling: 600
Heat Index: 36°   Visibility: 2.5mi
Dew Point: 36°   Wind: 14mph
Humidity: 100%   Direction: 180°S
Pressure: 29.95"   Gusts: 22mph
Location:  42.9498°N, 91.6662°W
Report Text: KDEH 211635Z AUTO 18012G19KT 2 1/2SM BR OVC006 02/02 A2995 RMK AO2
Loading
Personal Weather Stations






























Interactive Weather Map New forecast layout! Learn more

10-Day Weather Forecast

Advertisements
Track Severe Weather on mobile